Carey, Idaho
Current Conditions -  °F | °C
As of 12:50 PM on Friday 19 Dec 2014 (Local Time) from KSUN Reporting Station
Light Snow Light Snow  
Wind Chill: 34°   Ceiling: 3000
Heat Index: 34°   Visibility: 4mi
Dew Point: 32°   Wind: 0mph
Humidity: 93%   Direction: NA
Pressure: 30.07"   Gusts: NA
Location:  43.31°N, 113.94°W
Report Text: KSUN 191950Z 00000KT 4SM -SN SCT010 BKN030 OVC040 01/00 A3007
Loading
Personal Weather Stations






























Interactive Weather Map New forecast layout! Learn more

10-Day Weather Forecast

Advertisements
Track Severe Weather on mobile